createdAt,value
2019-02-25T00:00:15.941Z,333.50
2019-02-25T00:05:19.976Z,605.77
2019-02-25T00:10:23.981Z,985.97
2019-02-25T00:15:28.060Z,749.67
2019-02-25T00:20:32.241Z,532.60
2019-02-25T00:25:36.294Z,774.77
2019-02-25T00:30:40.603Z,823.43
2019-02-25T00:35:44.627Z,699.80
2019-02-25T00:40:48.836Z,453.60
2019-02-25T00:45:53.285Z,391.97
2019-02-25T00:50:57.563Z,202.83
2019-02-25T00:56:01.645Z,364.17
2019-02-25T01:01:05.677Z,602.30
2019-02-25T01:06:09.698Z,610.47
2019-02-25T01:11:13.821Z,281.13
2019-02-25T01:16:17.873Z,148.77
2019-02-25T01:21:21.813Z,152.27
2019-02-25T01:26:25.880Z,149.03
2019-02-25T01:31:29.868Z,394.97
2019-02-25T01:36:33.955Z,356.53
2019-02-25T01:41:38.043Z,423.70
2019-02-25T01:46:42.051Z,736.00
2019-02-25T01:51:46.016Z,719.23
2019-02-25T01:56:50.150Z,453.63
2019-02-25T02:01:54.241Z,636.37
2019-02-25T02:06:58.146Z,594.17
2019-02-25T02:12:02.331Z,246.13
2019-02-25T02:17:06.422Z,229.07
2019-02-25T02:22:10.691Z,183.00
2019-02-25T02:27:14.720Z,173.70
2019-02-25T02:32:18.719Z,149.40
2019-02-25T02:37:22.968Z,152.33
2019-02-25T02:42:27.035Z,190.60
2019-02-25T02:47:42.121Z,281.33
2019-02-25T02:52:46.439Z,169.00
2019-02-25T02:57:50.551Z,178.77
2019-02-25T03:02:54.721Z,162.63
2019-02-25T03:07:59.413Z,142.80
2019-02-25T03:13:03.479Z,160.83
2019-02-25T03:18:07.610Z,168.97
2019-02-25T03:23:11.645Z,211.27
2019-02-25T03:28:15.770Z,246.27
2019-02-25T03:33:19.914Z,151.10
2019-02-25T03:38:23.930Z,336.27
2019-02-25T03:43:28.014Z,297.30
2019-02-25T03:48:31.928Z,346.83
2019-02-25T03:53:36.012Z,247.57
2019-02-25T03:58:40.235Z,95.17
2019-02-25T04:03:44.261Z,172.90
2019-02-25T04:08:48.334Z,163.40
2019-02-25T04:13:52.526Z,118.23
2019-02-25T04:18:56.646Z,372.80
2019-02-25T04:24:00.821Z,287.87
2019-02-25T04:29:04.947Z,353.60
2019-02-25T04:34:08.935Z,414.27
2019-02-25T04:39:12.951Z,401.83
2019-02-25T04:44:16.871Z,288.67
2019-02-25T04:49:21.006Z,255.30
2019-02-25T04:54:25.132Z,362.83
2019-02-25T04:59:29.153Z,321.60
2019-02-25T05:04:33.280Z,251.50
2019-02-25T05:09:37.406Z,231.43
2019-02-25T05:14:41.432Z,172.00
2019-02-25T05:19:45.458Z,207.40
2019-02-25T05:24:49.486Z,228.53
2019-02-25T05:29:53.511Z,560.50
2019-02-25T05:34:57.536Z,365.03
2019-02-25T05:40:01.772Z,750.27
2019-02-25T05:45:05.893Z,523.67
2019-02-25T05:50:11.981Z,672.97
2019-02-25T05:55:16.247Z,730.47
2019-02-25T06:00:20.397Z,792.57
2019-02-25T06:05:24.462Z,559.67
2019-02-25T06:10:28.592Z,555.63
2019-02-25T06:15:32.706Z,257.37
2019-02-25T06:20:36.841Z,189.97
2019-02-25T06:25:40.967Z,147.00
2019-02-25T06:30:44.997Z,171.67
2019-02-25T06:35:49.169Z,146.30
2019-02-25T06:40:53.193Z,168.67
2019-02-25T06:45:57.263Z,160.63
2019-02-25T06:51:01.358Z,162.23
2019-02-25T06:56:05.540Z,151.77
2019-02-25T07:01:09.476Z,211.00
2019-02-25T07:06:13.641Z,227.67
2019-02-25T07:11:17.811Z,363.93
2019-02-25T07:16:21.833Z,228.43
2019-02-25T07:21:25.760Z,224.23
2019-02-25T07:26:29.939Z,250.73
2019-02-25T07:31:34.090Z,222.27
2019-02-25T07:36:38.216Z,257.43
2019-02-25T07:41:42.323Z,286.43
2019-02-25T07:46:46.396Z,271.23
2019-02-25T07:51:50.702Z,257.83
2019-02-25T07:56:55.009Z,262.90
2019-02-25T08:01:59.243Z,251.57
2019-02-25T08:07:03.320Z,203.23
2019-02-25T08:12:07.545Z,203.10
2019-02-25T08:17:11.776Z,254.50
2019-02-25T08:22:15.909Z,285.60
2019-02-25T08:27:19.826Z,247.20
2019-02-25T08:32:23.955Z,220.40
2019-02-25T08:37:32.091Z,220.43
2019-02-25T08:42:34.211Z,154.70
2019-02-25T08:47:38.909Z,141.50
2019-02-25T08:52:43.131Z,162.43
2019-02-25T08:57:47.261Z,137.53
2019-02-25T09:02:53.001Z,141.90
2019-02-25T09:07:57.046Z,113.90
2019-02-25T09:13:01.176Z,132.27
2019-02-25T09:18:03.278Z,120.17
2019-02-25T09:23:07.286Z,102.93
2019-02-25T09:28:11.303Z,70.13
2019-02-25T09:33:15.332Z,66.63
2019-02-25T09:38:19.460Z,67.53
2019-02-25T09:43:23.584Z,57.43
2019-02-25T09:48:27.547Z,47.20
2019-02-25T09:53:31.497Z,56.10
2019-02-25T09:58:35.714Z,52.90
2019-02-25T10:03:41.121Z,49.33
2019-02-25T10:08:46.574Z,52.60
2019-02-25T10:13:51.933Z,46.57
2019-02-25T10:18:56.326Z,44.90
2019-02-25T10:24:00.461Z,51.13
2019-02-25T10:29:04.741Z,50.67
2019-02-25T10:34:08.814Z,53.40
2019-02-25T10:39:14.939Z,49.53
2019-02-25T10:44:18.803Z,45.50
2019-02-25T10:49:24.420Z,45.70
2019-02-25T10:54:28.489Z,45.83
2019-02-25T10:59:34.524Z,43.93
2019-02-25T11:04:38.428Z,57.13
2019-02-25T11:09:44.409Z,51.23
2019-02-25T11:14:48.436Z,49.60
2019-02-25T11:19:54.500Z,52.93
2019-02-25T11:24:58.432Z,44.90
2019-02-25T11:30:02.352Z,50.37
2019-02-25T11:35:08.657Z,43.90
2019-02-25T11:40:15.214Z,53.47
2019-02-25T11:45:19.300Z,49.63
2019-02-25T11:50:23.634Z,47.23
2019-02-25T11:55:27.698Z,49.37
2019-02-25T12:00:31.881Z,58.40
2019-02-25T12:05:36.373Z,48.57
2019-02-25T12:10:42.366Z,50.10
2019-02-25T12:15:46.517Z,49.57
2019-02-25T12:20:50.655Z,52.63
2019-02-25T12:25:55.202Z,50.53
2019-02-25T12:30:59.258Z,52.50
2019-02-25T12:36:03.333Z,46.90
2019-02-25T12:41:07.679Z,46.03
2019-02-25T12:46:11.947Z,52.13
2019-02-25T12:51:16.042Z,53.00
2019-02-25T12:56:20.199Z,48.93
2019-02-25T13:01:25.202Z,50.57
2019-02-25T13:06:29.185Z,48.87
2019-02-25T13:11:33.307Z,45.33
2019-02-25T13:16:37.420Z,44.17
2019-02-25T13:21:41.468Z,48.13
2019-02-25T13:26:45.487Z,43.37
2019-02-25T13:31:49.607Z,45.67
2019-02-25T13:36:53.694Z,49.67
2019-02-25T13:41:58.127Z,45.40
2019-02-25T13:47:02.027Z,50.47
2019-02-25T13:52:06.057Z,42.77
2019-02-25T13:57:10.515Z,47.53
2019-02-25T14:02:14.787Z,50.07
2019-02-25T14:07:18.817Z,43.43
2019-02-25T14:12:22.947Z,53.43
2019-02-25T14:17:26.978Z,45.33
2019-02-25T14:22:31.413Z,44.13
2019-02-25T14:27:35.478Z,44.50
2019-02-25T14:32:39.693Z,41.70
2019-02-25T14:37:44.237Z,40.33
2019-02-25T14:42:49.453Z,42.93
2019-02-25T14:47:57.533Z,40.03
2019-02-25T14:53:00.618Z,39.67
2019-02-25T14:58:07.375Z,44.27
2019-02-25T15:03:13.028Z,45.83
2019-02-25T15:08:17.520Z,43.20
2019-02-25T15:13:24.008Z,41.10
2019-02-25T15:18:29.115Z,43.63
2019-02-25T15:23:33.738Z,47.13
2019-02-25T15:28:38.003Z,48.53
2019-02-25T15:33:42.505Z,42.77
2019-02-25T15:38:46.791Z,43.10
2019-02-25T15:43:53.067Z,41.53
2019-02-25T15:48:57.138Z,43.90
2019-02-25T15:54:01.626Z,44.27
2019-02-25T15:59:05.910Z,46.77
2019-02-25T16:04:13.338Z,42.17
2019-02-25T16:09:21.537Z,37.87
2019-02-25T16:14:23.991Z,38.53
2019-02-25T16:19:39.931Z,39.03
2019-02-25T16:24:35.362Z,37.67
2019-02-25T16:29:41.777Z,43.60
2019-02-25T16:34:45.970Z,43.13
2019-02-25T16:39:50.194Z,42.33
2019-02-25T16:44:57.161Z,36.23
2019-02-25T16:50:00.842Z,37.37
2019-02-25T16:55:05.693Z,34.10
2019-02-25T17:00:12.857Z,40.10
2019-02-25T17:05:17.085Z,43.93
2019-02-25T17:10:24.083Z,53.13
2019-02-25T17:15:27.203Z,55.93
2019-02-25T17:20:31.407Z,54.03
2019-02-25T17:25:36.205Z,55.50
2019-02-25T17:30:42.930Z,49.10
2019-02-25T17:35:47.629Z,48.33
2019-02-25T17:40:52.888Z,48.80
2019-02-25T17:46:00.273Z,51.37
2019-02-25T17:51:04.893Z,50.23
2019-02-25T17:56:09.007Z,50.40
2019-02-25T18:01:13.033Z,47.07
2019-02-25T18:06:20.147Z,47.20
2019-02-25T18:11:24.641Z,51.23
2019-02-25T18:16:28.897Z,47.60
2019-02-25T18:21:33.960Z,47.40
2019-02-25T18:26:38.280Z,49.27
2019-02-25T18:31:42.663Z,51.40
2019-02-25T18:36:51.038Z,49.83
2019-02-25T18:41:55.529Z,47.07
2019-02-25T18:47:00.676Z,54.83
2019-02-25T18:52:05.009Z,45.97
2019-02-25T18:57:09.337Z,56.23
2019-02-25T19:02:14.555Z,58.23
2019-02-25T19:07:19.394Z,49.03
2019-02-25T19:12:23.650Z,43.37
2019-02-25T19:17:29.765Z,48.50
2019-02-25T19:22:37.514Z,51.07
2019-02-25T19:27:41.706Z,43.90
2019-02-25T19:32:46.024Z,43.30
2019-02-25T19:37:50.555Z,41.87
2019-02-25T19:42:56.815Z,45.83
2019-02-25T19:48:02.477Z,40.20
2019-02-25T19:53:07.643Z,43.40
2019-02-25T19:58:12.620Z,44.43
2019-02-25T20:03:16.854Z,45.23
2019-02-25T20:08:21.140Z,43.97
2019-02-25T20:13:26.499Z,46.00
2019-02-25T20:18:31.264Z,45.20
2019-02-25T20:23:36.433Z,46.37
2019-02-25T20:28:41.656Z,51.10
2019-02-25T20:33:46.703Z,56.07
2019-02-25T20:38:51.074Z,52.17
2019-02-25T20:43:56.222Z,53.30
2019-02-25T20:49:00.946Z,51.37
2019-02-25T20:54:05.100Z,46.47
2019-02-25T20:59:09.954Z,48.93
2019-02-25T21:04:18.030Z,47.93
2019-02-25T21:09:22.685Z,48.30
2019-02-25T21:14:29.518Z,50.93
2019-02-25T21:19:33.410Z,48.93
2019-02-25T21:24:38.639Z,54.40
2019-02-25T21:29:42.785Z,47.30
2019-02-25T21:34:52.530Z,44.20
2019-02-25T21:39:52.740Z,50.37
2019-02-25T21:44:57.590Z,51.03
2019-02-25T21:50:04.057Z,45.87
2019-02-25T21:55:09.757Z,47.37
2019-02-25T22:00:16.403Z,50.33
2019-02-25T22:05:21.277Z,48.47
2019-02-25T22:10:26.413Z,45.00
2019-02-25T22:15:30.480Z,41.53
2019-02-25T22:20:37.643Z,47.93
2019-02-25T22:25:40.544Z,42.97
2019-02-25T22:30:45.181Z,43.07
2019-02-25T22:35:51.807Z,45.37
2019-02-25T22:40:58.100Z,37.23
2019-02-25T22:46:02.534Z,43.07
2019-02-25T22:51:07.686Z,41.63
2019-02-25T22:56:13.575Z,41.77
2019-02-25T23:01:18.240Z,39.33
2019-02-25T23:06:23.620Z,43.27
2019-02-25T23:11:29.294Z,34.47
2019-02-25T23:16:33.360Z,40.83
2019-02-25T23:21:38.298Z,39.03
2019-02-25T23:26:42.436Z,36.80
2019-02-25T23:31:46.558Z,39.93
2019-02-25T23:36:51.639Z,38.07
2019-02-25T23:41:56.418Z,38.93
2019-02-25T23:47:02.104Z,42.43
2019-02-25T23:52:06.092Z,41.13
2019-02-25T23:57:10.022Z,41.97
